Time;durP1;ratioP1;P1;durP2;ratioP2;P2;SDS_P1;SDS_P2;PMS_P1;PMS_P2;Temp;Humidity;BMP_temperature;BMP_pressure;BME280_temperature;BME280_humidity;BME280_pressure;Samples;Min_cycle;Max_cycle;Signal;HPM_P1;HPM_P2
2021/04/05 00:00:18;;;;;;;20.75;10.45;;;6.40;87.20;;;;;;4957712;28;20023;-82
2021/04/05 00:02:44;;;;;;;22.52;10.90;;;6.30;86.90;;;;;;4988078;28;20033;-81
2021/04/05 00:05:13;;;;;;;22.50;10.73;;;6.30;87.00;;;;;;4967222;28;20469;-82
2021/04/05 00:07:41;;;;;;;22.73;10.35;;;6.30;87.10;;;;;;4968425;28;20045;-82
2021/04/05 00:10:13;;;;;;;23.45;10.70;;;6.30;87.20;;;;;;4959345;28;20019;-81
2021/04/05 00:12:38;;;;;;;23.95;10.50;;;6.30;87.10;;;;;;4956351;29;20032;-82
2021/04/05 00:15:08;;;;;;;18.15;9.50;;;6.30;87.20;;;;;;4955895;28;20027;-82
2021/04/05 00:17:35;;;;;;;20.90;11.10;;;6.30;87.40;;;;;;4959808;28;20097;-82
2021/04/05 00:20:01;;;;;;;22.27;11.02;;;6.30;87.30;;;;;;4976687;28;20027;-81
2021/04/05 00:22:26;;;;;;;24.02;11.82;;;6.30;87.50;;;;;;4959561;28;20031;-82
2021/04/05 00:24:52;;;;;;;25.50;11.18;;;6.30;87.50;;;;;;4959296;28;20050;-81
2021/04/05 00:27:18;;;;;;;26.17;11.20;;;6.30;87.40;;;;;;4960637;28;20032;-82
2021/04/05 00:29:43;;;;;;;20.20;11.23;;;6.30;87.60;;;;;;4987996;28;20015;-82
2021/04/05 00:32:09;;;;;;;20.58;11.15;;;6.30;87.60;;;;;;4968587;28;20035;-82
2021/04/05 00:34:35;;;;;;;20.45;10.73;;;6.30;87.60;;;;;;4955639;29;20051;-82
2021/04/05 00:37:00;;;;;;;28.25;13.57;;;6.30;87.50;;;;;;4957280;28;20231;-82
2021/04/05 00:39:26;;;;;;;20.23;11.35;;;6.30;87.60;;;;;;4942596;29;20492;-82
2021/04/05 00:41:52;;;;;;;23.83;11.60;;;6.30;87.50;;;;;;4955833;28;20035;-82
2021/04/05 00:44:18;;;;;;;23.90;11.70;;;6.40;87.60;;;;;;4971731;28;20040;-81
2021/04/05 00:46:57;;;;;;;24.58;12.48;;;6.40;87.60;;;;;;4955693;28;20047;-82
2021/04/05 00:49:22;;;;;;;22.92;13.15;;;6.30;87.50;;;;;;4955547;28;20031;-82
2021/04/05 00:51:48;;;;;;;22.25;11.32;;;6.30;87.50;;;;;;4952449;29;20167;-82
2021/04/05 00:54:14;;;;;;;23.27;12.20;;;6.30;87.30;;;;;;4937783;29;20036;-81
2021/04/05 00:56:40;;;;;;;23.95;12.82;;;6.40;87.40;;;;;;4970521;28;20035;-81
2021/04/05 00:59:06;;;;;;;25.55;11.77;;;6.40;87.60;;;;;;4955555;29;20389;-81
2021/04/05 01:01:32;;;;;;;23.92;11.45;;;6.40;87.40;;;;;;4938952;29;20031;-81
2021/04/05 01:03:58;;;;;;;23.30;13.02;;;6.40;87.50;;;;;;4971543;28;20062;-82
2021/04/05 01:06:30;;;;;;;27.00;12.75;;;6.40;87.50;;;;;;4954440;28;20556;-82
2021/04/05 01:08:56;;;;;;;25.08;13.38;;;6.40;87.60;;;;;;4971409;28;20469;-81
2021/04/05 01:11:25;;;;;;;20.92;11.25;;;6.50;87.60;;;;;;4955210;29;20023;-81
2021/04/05 01:13:53;;;;;;;23.27;12.60;;;6.50;87.50;;;;;;4956365;28;20035;-81
2021/04/05 01:16:19;;;;;;;22.70;12.18;;;6.50;87.70;;;;;;4956525;28;20097;-82
2021/04/05 01:18:45;;;;;;;26.65;13.48;;;6.50;87.70;;;;;;4953808;28;20035;-82
2021/04/05 01:21:10;;;;;;;24.45;12.55;;;6.50;87.80;;;;;;4955227;28;20090;-82
2021/04/05 01:23:37;;;;;;;23.15;12.13;;;6.50;87.90;;;;;;4956271;29;20027;-81
2021/04/05 01:26:03;;;;;;;21.02;12.27;;;6.50;88.00;;;;;;4956118;28;20030;-82
2021/04/05 01:28:29;;;;;;;20.35;11.65;;;6.50;87.90;;;;;;4971178;28;20086;-82
2021/04/05 01:30:57;;;;;;;22.80;12.55;;;6.50;88.00;;;;;;4956153;29;20035;-82
2021/04/05 01:33:29;;;;;;;22.60;12.57;;;6.50;88.00;;;;;;4941317;28;20031;-82
2021/04/05 01:36:03;;;;;;;27.38;12.93;;;6.50;88.00;;;;;;4986565;28;20496;-82
2021/04/05 01:38:30;;;;;;;24.20;13.35;;;6.60;88.20;;;;;;4979948;28;20468;-82
2021/04/05 01:41:00;;;;;;;25.10;12.55;;;6.50;88.10;;;;;;4975129;28;20370;-81
2021/04/05 01:43:26;;;;;;;26.45;13.23;;;6.60;89.20;;;;;;4962011;28;20023;-82
2021/04/05 01:45:57;;;;;;;27.90;13.35;;;6.60;88.40;;;;;;4964159;28;20038;-82
2021/04/05 01:48:25;;;;;;;27.40;13.23;;;6.60;88.60;;;;;;4975274;28;20023;-82
2021/04/05 01:50:55;;;;;;;24.85;11.95;;;6.60;88.60;;;;;;4957966;28;20049;-81
2021/04/05 01:53:21;;;;;;;23.25;12.45;;;6.60;88.80;;;;;;4971275;28;20544;-81
2021/04/05 01:55:47;;;;;;;31.77;13.68;;;6.60;89.00;;;;;;4957644;28;20126;-81
2021/04/05 01:58:16;;;;;;;26.38;14.23;;;6.60;89.30;;;;;;4974954;28;20094;-81
2021/04/05 02:00:42;;;;;;;25.27;13.88;;;6.60;89.20;;;;;;4957570;28;20022;-82
2021/04/05 02:03:09;;;;;;;21.17;12.75;;;6.60;89.30;;;;;;4969408;28;20393;-82
2021/04/05 02:05:44;;;;;;;29.77;12.73;;;6.70;89.40;;;;;;4974882;28;20023;-81
2021/04/05 02:08:10;;;;;;;29.00;13.52;;;6.70;89.80;;;;;;4974836;28;20106;-81
2021/04/05 02:10:36;;;;;;;28.27;12.75;;;6.70;89.60;;;;;;4989770;28;20121;-82
2021/04/05 02:13:03;;;;;;;27.50;12.10;;;6.70;89.60;;;;;;4964050;28;20023;-82
2021/04/05 02:15:31;;;;;;;28.75;13.32;;;6.70;89.90;;;;;;4986830;28;20077;-81
2021/04/05 02:17:57;;;;;;;27.25;12.93;;;6.80;89.80;;;;;;4971790;28;20368;-81
2021/04/05 02:20:23;;;;;;;31.98;13.02;;;6.80;90.10;;;;;;4973474;28;20031;-81
2021/04/05 02:22:52;;;;;;;27.42;13.77;;;6.80;90.10;;;;;;4966005;28;20034;-81
2021/04/05 02:25:20;;;;;;;23.13;12.35;;;6.80;90.10;;;;;;4970289;28;20105;-81
2021/04/05 02:27:51;;;;;;;27.30;12.75;;;6.80;90.00;;;;;;4973108;28;20511;-81
2021/04/05 02:30:26;;;;;;;25.00;13.20;;;6.80;90.10;;;;;;4974107;28;20035;-81
2021/04/05 02:33:04;;;;;;;23.85;12.60;;;6.90;90.40;;;;;;4974381;28;20027;-81
2021/04/05 02:35:33;;;;;;;26.05;13.18;;;6.80;90.20;;;;;;4972641;28;20058;-82
2021/04/05 02:38:01;;;;;;;23.35;12.68;;;6.90;90.20;;;;;;4971695;28;20054;-82
2021/04/05 02:40:29;;;;;;;27.80;13.00;;;6.90;90.30;;;;;;4978173;28;20447;-81
2021/04/05 02:42:56;;;;;;;30.17;12.40;;;6.90;90.30;;;;;;4974100;28;20023;-81
2021/04/05 02:45:25;;;;;;;35.92;14.95;;;6.90;90.60;;;;;;4960263;28;20534;-81
2021/04/05 02:47:56;;;;;;;25.80;13.68;;;6.90;90.60;;;;;;4974130;28;20105;-82
2021/04/05 02:50:25;;;;;;;30.48;12.02;;;6.90;90.80;;;;;;4974163;28;20023;-81
2021/04/05 02:52:51;;;;;;;30.67;13.82;;;7.00;90.90;;;;;;4974244;28;20488;-82
2021/04/05 02:55:18;;;;;;;27.25;12.02;;;7.00;90.90;;;;;;4973987;28;20025;-81
2021/04/05 02:57:45;;;;;;;28.52;13.38;;;7.00;90.90;;;;;;4973995;28;20019;-81
2021/04/05 03:00:13;;;;;;;28.95;12.82;;;7.00;90.90;;;;;;4956532;28;20393;-81
2021/04/05 03:02:41;;;;;;;28.13;12.77;;;7.00;91.00;;;;;;4972579;28;20122;-82
2021/04/05 03:05:08;;;;;;;24.15;11.80;;;7.10;91.10;;;;;;4967874;28;20401;-81
2021/04/05 03:07:35;;;;;;;24.60;12.25;;;7.10;91.10;;;;;;4956275;28;20027;-82
2021/04/05 03:10:09;;;;;;;30.13;12.65;;;7.10;91.20;;;;;;4966245;28;20082;-81
2021/04/05 03:12:36;;;;;;;33.17;13.35;;;7.10;91.30;;;;;;4973711;28;20025;-82
2021/04/05 03:15:08;;;;;;;28.02;13.13;;;7.10;91.40;;;;;;4960292;28;20059;-82
2021/04/05 03:17:35;;;;;;;29.80;13.02;;;7.10;91.40;;;;;;4973105;28;20568;-81
2021/04/05 03:20:06;;;;;;;29.77;13.05;;;7.10;91.40;;;;;;4980577;28;20038;-82
2021/04/05 03:22:32;;;;;;;24.52;12.00;;;7.10;91.40;;;;;;4957142;28;20023;-81
2021/04/05 03:24:58;;;;;;;35.78;14.02;;;7.20;91.40;;;;;;4988521;28;20366;-81
2021/04/05 03:27:23;;;;;;;33.85;12.82;;;7.20;91.70;;;;;;4988181;28;20043;-82
2021/04/05 03:29:50;;;;;;;30.25;13.40;;;7.20;91.60;;;;;;4976328;28;20030;-81
2021/04/05 03:32:17;;;;;;;28.63;13.98;;;7.20;91.60;;;;;;4962412;28;20029;-81
2021/04/05 03:34:57;;;;;;;31.90;12.80;;;7.20;91.80;;;;;;4969287;28;20054;-81
2021/04/05 03:37:25;;;;;;;27.42;12.90;;;7.20;91.70;;;;;;4956029;28;20061;-82
2021/04/05 03:39:50;;;;;;;30.48;13.88;;;7.20;92.20;;;;;;4969211;28;20113;-82
2021/04/05 03:42:30;;;;;;;34.70;14.07;;;7.20;91.90;;;;;;4963877;28;20067;-82
2021/04/05 03:45:24;;;;;;;27.95;13.27;;;7.20;91.90;;;;;;4969570;28;20058;-81
2021/04/05 03:48:04;;;;;;;31.42;14.02;;;7.20;92.10;;;;;;4967765;28;20429;-81
2021/04/05 03:50:35;;;;;;;34.88;14.05;;;7.20;92.10;;;;;;4962751;28;20110;-81
2021/04/05 03:53:01;;;;;;;31.42;14.55;;;7.20;92.20;;;;;;4980218;28;20038;-81
2021/04/05 03:55:30;;;;;;;29.15;13.85;;;7.20;92.20;;;;;;4972046;28;20385;-81
2021/04/05 03:57:58;;;;;;;35.78;15.57;;;7.20;92.30;;;;;;4955654;28;20061;-81
2021/04/05 04:00:28;;;;;;;29.48;14.05;;;7.20;92.20;;;;;;4972006;28;20069;-81
2021/04/05 04:02:54;;;;;;;30.23;14.57;;;7.20;92.40;;;;;;4973081;28;20019;-81
2021/04/05 04:05:31;;;;;;;40.58;16.02;;;7.20;92.30;;;;;;4955595;28;20019;-81
2021/04/05 04:08:04;;;;;;;35.60;14.95;;;7.20;92.40;;;;;;4971771;28;20024;-81
2021/04/05 04:10:31;;;;;;;36.60;15.48;;;7.20;92.40;;;;;;4961132;28;20575;-81
2021/04/05 04:12:59;;;;;;;36.25;15.48;;;7.20;92.40;;;;;;4980628;28;20031;-81
2021/04/05 04:15:26;;;;;;;31.15;14.77;;;7.20;92.60;;;;;;4972980;28;20007;-81
2021/04/05 04:17:52;;;;;;;33.00;15.68;;;7.20;92.60;;;;;;4952488;29;20524;-81
2021/04/05 04:20:18;;;;;;;33.92;13.95;;;7.20;92.60;;;;;;4952694;28;20039;-81
2021/04/05 04:22:46;;;;;;;34.85;14.63;;;7.20;92.60;;;;;;4961088;28;20023;-81
2021/04/05 04:25:13;;;;;;;32.55;14.75;;;7.20;92.70;;;;;;4987819;28;20126;-81
2021/04/05 04:27:43;;;;;;;33.70;15.20;;;7.20;92.80;;;;;;4969283;28;20469;-81
2021/04/05 04:30:09;;;;;;;41.47;15.77;;;7.20;92.70;;;;;;4973000;28;20176;-81
2021/04/05 04:32:35;;;;;;;36.33;15.80;;;7.30;92.90;;;;;;4955283;28;20031;-81
2021/04/05 04:35:19;;;;;;;31.08;14.13;;;7.30;92.90;;;;;;5011454;23;20102;-81
2021/04/05 04:37:45;;;;;;;33.13;13.75;;;7.30;92.80;;;;;;5014515;28;20025;-81
2021/04/05 04:40:11;;;;;;;30.92;13.25;;;7.30;92.90;;;;;;5019141;28;20030;-81
2021/04/05 04:42:36;;;;;;;35.08;14.63;;;7.30;92.90;;;;;;5016890;28;20033;-81
2021/04/05 04:45:03;;;;;;;34.95;15.10;;;7.30;92.80;;;;;;4994603;28;20030;-81
2021/04/05 04:47:29;;;;;;;25.42;13.05;;;7.40;93.00;;;;;;5002618;28;20026;-81
2021/04/05 04:49:54;;;;;;;29.73;14.02;;;7.40;93.10;;;;;;4991723;28;20040;-80
2021/04/05 04:52:21;;;;;;;31.33;14.00;;;7.40;93.00;;;;;;5024011;28;20035;-81
2021/04/05 04:54:46;;;;;;;33.95;14.82;;;7.40;93.10;;;;;;4997596;28;20175;-81
2021/04/05 04:57:12;;;;;;;31.73;13.70;;;7.50;93.00;;;;;;4997679;28;20125;-81
2021/04/05 04:59:38;;;;;;;32.15;14.15;;;7.50;93.10;;;;;;5000815;28;20040;-81
2021/04/05 05:02:04;;;;;;;29.17;13.40;;;7.50;93.10;;;;;;4981231;28;20029;-81
2021/04/05 05:04:31;;;;;;;31.67;14.63;;;7.50;93.20;;;;;;5016579;28;20394;-81
2021/04/05 05:06:59;;;;;;;29.35;12.55;;;7.60;93.30;;;;;;5000440;28;20085;-81
2021/04/05 05:09:26;;;;;;;27.00;12.23;;;7.60;93.20;;;;;;5023360;28;20049;-81
2021/04/05 05:11:53;;;;;;;32.83;14.30;;;7.50;93.10;;;;;;5021140;28;20032;-81
2021/04/05 05:14:19;;;;;;;23.60;12.38;;;7.60;93.20;;;;;;5028802;28;20088;-81
2021/04/05 05:16:46;;;;;;;24.25;12.43;;;7.60;93.20;;;;;;5027385;28;20076;-80
2021/04/05 05:19:14;;;;;;;31.35;13.45;;;7.60;93.10;;;;;;5016619;28;20479;-81
2021/04/05 05:21:42;;;;;;;31.65;12.82;;;7.60;93.20;;;;;;5025436;28;20029;-81
2021/04/05 05:24:10;;;;;;;27.77;13.27;;;7.70;93.30;;;;;;5019100;28;20045;-80
2021/04/05 05:26:38;;;;;;;31.10;12.43;;;7.70;93.20;;;;;;5025737;28;20041;-81
2021/04/05 05:29:07;;;;;;;33.67;14.02;;;7.70;93.40;;;;;;5016387;28;20017;-81
2021/04/05 05:31:41;;;;;;;31.35;13.18;;;7.70;93.30;;;;;;5022634;28;20375;-81
2021/04/05 05:34:11;;;;;;;25.88;11.82;;;7.70;93.30;;;;;;5019485;28;20073;-81
2021/04/05 05:36:37;;;;;;;25.80;12.43;;;7.70;93.20;;;;;;5000865;28;20032;-81
2021/04/05 05:39:05;;;;;;;27.90;11.98;;;7.80;93.40;;;;;;5034108;28;20030;-81
2021/04/05 05:41:55;;;;;;;20.90;9.95;;;7.70;93.20;;;;;;5016425;28;20026;-81
2021/04/05 05:44:42;;;;;;;18.70;9.23;;;7.80;93.30;;;;;;5016226;28;20479;-81
2021/04/05 05:47:46;;;;;;;19.85;8.63;;;7.80;93.20;;;;;;5016351;28;20125;-81
2021/04/05 05:50:26;;;;;;;7.68;2.85;;;7.80;93.20;;;;;;5021750;28;20479;-81
2021/04/05 05:53:07;;;;;;;7.30;1.98;;;7.70;92.60;;;;;;5034205;28;20022;-81
2021/04/05 05:56:09;;;;;;;3.93;1.33;;;7.60;92.50;;;;;;5016192;28;20036;-81
2021/04/05 05:59:05;;;;;;;5.10;1.40;;;7.50;92.20;;;;;;5019644;28;20086;-81
2021/04/05 06:01:54;;;;;;;4.07;1.08;;;7.40;92.20;;;;;;5018631;28;20030;-81
2021/04/05 06:04:44;;;;;;;3.53;1.20;;;7.20;92.40;;;;;;5024127;28;20035;-81
2021/04/05 06:07:35;;;;;;;4.43;1.10;;;7.10;92.60;;;;;;5003741;28;20495;-81
2021/04/05 06:10:24;;;;;;;4.22;1.45;;;7.10;92.70;;;;;;5033454;28;20068;-81
2021/04/05 06:13:12;;;;;;;5.63;1.67;;;7.00;92.80;;;;;;5024723;28;20333;-81
2021/04/05 06:16:08;;;;;;;6.18;1.42;;;7.00;92.90;;;;;;5003377;28;20542;-81
2021/04/05 06:19:07;;;;;;;6.50;1.30;;;7.00;93.20;;;;;;5033323;28;20053;-80
2021/04/05 06:21:43;;;;;;;5.00;1.20;;;6.90;93.20;;;;;;5026175;28;20021;-80
2021/04/05 06:24:19;;;;;;;4.25;1.20;;;6.90;93.20;;;;;;5033333;28;20414;-81
2021/04/05 06:27:17;;;;;;;7.13;1.30;;;6.90;93.30;;;;;;5020453;28;20030;-82
2021/04/05 06:30:00;;;;;;;4.10;1.17;;;6.80;93.50;;;;;;4999282;28;20363;-81
2021/04/05 06:32:38;;;;;;;3.45;1.00;;;6.80;93.20;;;;;;5015666;28;20048;-81
2021/04/05 06:35:32;;;;;;;5.60;1.30;;;6.80;93.10;;;;;;5025277;28;20077;-81
2021/04/05 06:38:04;;;;;;;3.67;0.80;;;6.80;93.20;;;;;;5004770;28;20052;-81
2021/04/05 06:40:33;;;;;;;4.03;1.33;;;6.70;93.20;;;;;;5015301;28;20095;-81
2021/04/05 06:43:41;;;;;;;5.20;1.20;;;6.70;93.30;;;;;;5015419;28;20029;-80
2021/04/05 06:46:52;;;;;;;3.90;0.80;;;6.70;93.20;;;;;;5004762;28;20029;-81
2021/04/05 06:49:17;;;;;;;3.42;1.02;;;6.70;93.10;;;;;;4979241;28;20467;-81
2021/04/05 06:51:58;;;;;;;2.83;1.00;;;6.60;93.10;;;;;;5030105;28;20044;-80
2021/04/05 06:54:41;;;;;;;6.85;1.52;;;6.60;93.40;;;;;;5032681;28;20036;-81
2021/04/05 06:57:11;;;;;;;4.85;1.00;;;6.60;93.10;;;;;;5015061;28;20148;-81
2021/04/05 06:59:50;;;;;;;4.90;1.20;;;6.60;93.00;;;;;;5014816;28;20091;-81
2021/04/05 07:02:42;;;;;;;5.63;1.27;;;6.60;92.90;;;;;;5032821;28;20057;-81
2021/04/05 07:05:29;;;;;;;6.35;1.40;;;6.50;92.70;;;;;;5016256;28;20025;-81
2021/04/05 07:08:23;;;;;;;6.07;1.40;;;6.60;92.90;;;;;;5032723;28;20033;-81
2021/04/05 07:11:15;;;;;;;4.82;0.90;;;6.60;92.90;;;;;;5032670;28;20021;-82
2021/04/05 07:13:50;;;;;;;9.10;1.15;;;6.60;92.80;;;;;;5005927;28;20034;-81
2021/04/05 07:16:50;;;;;;;6.68;0.98;;;6.60;92.60;;;;;;5031752;28;20021;-81
2021/04/05 07:19:55;;;;;;;4.68;1.13;;;6.50;92.70;;;;;;5014680;28;20026;-81
2021/04/05 07:22:56;;;;;;;3.60;1.65;;;6.50;92.90;;;;;;5030482;28;20085;-82
2021/04/05 07:25:36;;;;;;;4.05;0.70;;;6.50;92.90;;;;;;5030194;28;20042;-82
2021/04/05 07:28:20;;;;;;;4.60;0.82;;;6.50;92.90;;;;;;5017476;28;20021;-82
2021/04/05 07:30:54;;;;;;;3.38;0.85;;;6.40;92.80;;;;;;5032520;28;20487;-80
2021/04/05 07:33:30;;;;;;;3.00;0.70;;;6.40;92.70;;;;;;5001732;28;20029;-84
2021/04/05 07:35:58;;;;;;;6.22;0.70;;;6.40;92.80;;;;;;5032327;28;20033;-81
2021/04/05 07:38:30;;;;;;;2.53;0.57;;;6.40;92.70;;;;;;5008390;28;20029;-81
2021/04/05 07:41:26;;;;;;;3.47;0.52;;;6.30;92.70;;;;;;5007918;28;20056;-81
2021/04/05 07:44:11;;;;;;;9.43;1.35;;;6.30;92.70;;;;;;5020625;28;20036;-81
2021/04/05 07:46:45;;;;;;;7.75;1.42;;;6.20;92.40;;;;;;5014379;28;20021;-81
2021/04/05 07:49:36;;;;;;;12.55;1.55;;;6.10;92.60;;;;;;5014443;28;20039;-80
2021/04/05 07:52:32;;;;;;;10.55;1.98;;;6.10;92.60;;;;;;5017754;28;20386;-80
2021/04/05 07:55:00;;;;;;;11.60;2.03;;;6.10;92.40;;;;;;5032130;28;20460;-83
2021/04/05 07:57:55;;;;;;;12.48;1.83;;;5.90;91.70;;;;;;5014383;28;20021;-81
2021/04/05 08:00:29;;;;;;;12.98;2.47;;;5.90;91.70;;;;;;5014263;28;20475;-82
2021/04/05 08:03:24;;;;;;;11.75;2.35;;;5.80;91.70;;;;;;5022896;28;20036;-81
2021/04/05 08:05:57;;;;;;;18.67;2.75;;;5.70;91.40;;;;;;4977463;28;20048;-81
2021/04/05 08:08:43;;;;;;;15.02;2.35;;;5.70;91.50;;;;;;5014609;28;20045;-81
2021/04/05 08:11:31;;;;;;;12.50;2.13;;;5.70;91.60;;;;;;5024415;28;20026;-81
2021/04/05 08:14:02;;;;;;;19.92;3.08;;;5.60;91.50;;;;;;5014345;28;20090;-81
2021/04/05 08:16:49;;;;;;;11.75;2.38;;;5.60;91.70;;;;;;5014577;28;20056;-81
2021/04/05 08:19:53;;;;;;;12.52;2.33;;;5.60;91.70;;;;;;5014019;28;20025;-81
2021/04/05 08:22:47;;;;;;;17.55;2.75;;;5.60;91.60;;;;;;5012759;28;20029;-81
2021/04/05 08:25:47;;;;;;;11.75;1.48;;;5.60;91.40;;;;;;5013524;28;20363;-80
2021/04/05 08:28:38;;;;;;;9.43;1.90;;;5.60;91.20;;;;;;5027026;28;20033;-82
2021/04/05 08:31:10;;;;;;;11.63;1.60;;;5.60;91.00;;;;;;5017197;28;20029;-82
2021/04/05 08:34:13;;;;;;;10.65;1.95;;;5.60;90.50;;;;;;5014084;28;20042;-82
2021/04/05 08:36:49;;;;;;;13.30;2.42;;;5.60;89.60;;;;;;5014321;28;20077;-82
2021/04/05 08:39:53;;;;;;;13.40;2.00;;;5.50;88.30;;;;;;5015674;28;20022;-82
2021/04/05 08:42:38;;;;;;;17.45;2.92;;;5.60;88.20;;;;;;5026755;28;20029;-81
2021/04/05 08:45:21;;;;;;;13.30;1.90;;;5.60;88.60;;;;;;5014141;28;20080;-81
2021/04/05 08:48:03;;;;;;;10.88;2.65;;;5.60;88.10;;;;;;5014161;28;20025;-82
2021/04/05 08:50:34;;;;;;;10.30;1.80;;;5.70;86.90;;;;;;5015358;28;20018;-81
2021/04/05 08:53:02;;;;;;;6.97;1.55;;;5.70;86.60;;;;;;5014209;28;20120;-81
2021/04/05 08:55:30;;;;;;;10.35;1.60;;;5.80;87.70;;;;;;5010994;28;20033;-82
2021/04/05 08:58:00;;;;;;;6.25;1.50;;;5.80;86.80;;;;;;5015071;28;20026;-81
2021/04/05 09:00:27;;;;;;;7.32;1.60;;;6.00;87.10;;;;;;5015028;28;20026;-82
2021/04/05 09:02:58;;;;;;;5.97;1.45;;;6.00;83.90;;;;;;5013898;28;20050;-81
2021/04/05 09:05:26;;;;;;;8.27;1.50;;;6.00;82.50;;;;;;5013658;28;20057;-81
2021/04/05 09:08:01;;;;;;;3.92;1.08;;;6.10;81.40;;;;;;5013755;28;20021;-81
2021/04/05 09:10:41;;;;;;;7.35;1.40;;;6.10;81.50;;;;;;5013700;28;20022;-81
2021/04/05 09:13:11;;;;;;;7.15;1.20;;;6.10;80.70;;;;;;5013773;28;20505;-85
2021/04/05 09:16:14;;;;;;;4.97;1.05;;;6.10;81.20;;;;;;5013796;28;20026;-85
2021/04/05 09:19:21;;;;;;;6.25;0.93;;;6.10;80.40;;;;;;5013812;28;20146;-86
2021/04/05 09:22:21;;;;;;;3.83;0.70;;;6.00;82.30;;;;;;4980849;28;20038;-85
2021/04/05 09:25:00;;;;;;;3.65;0.68;;;5.90;82.90;;;;;;4948954;28;20039;-85
2021/04/05 09:27:49;;;;;;;5.50;0.60;;;5.80;82.00;;;;;;5012067;28;20101;-85
2021/04/05 09:30:40;;;;;;;4.28;0.50;;;5.80;83.00;;;;;;5020379;28;20376;-86
2021/04/05 09:33:24;;;;;;;2.58;0.85;;;5.80;83.20;;;;;;5005912;28;20036;-85
2021/04/05 09:36:17;;;;;;;1.45;0.50;;;5.80;84.60;;;;;;5016972;28;20022;-86
2021/04/05 09:39:21;;;;;;;1.13;0.30;;;5.80;85.80;;;;;;5015414;28;20037;-86
2021/04/05 09:42:16;;;;;;;1.27;0.20;;;5.70;86.80;;;;;;5034290;28;20410;-86
2021/04/05 09:45:00;;;;;;;3.03;0.60;;;5.70;87.40;;;;;;5013120;28;20030;-85
2021/04/05 09:47:40;;;;;;;1.05;0.30;;;5.70;87.00;;;;;;5030553;28;20508;-85
2021/04/05 09:50:43;;;;;;;1.75;0.40;;;5.70;87.90;;;;;;5032296;28;20509;-86
2021/04/05 09:53:23;;;;;;;2.45;0.50;;;5.70;87.00;;;;;;5043809;28;20017;-85
2021/04/05 09:55:54;;;;;;;4.45;0.82;;;5.80;87.10;;;;;;5022522;28;20360;-86
2021/04/05 09:58:25;;;;;;;4.32;0.80;;;5.80;86.40;;;;;;5039040;28;20129;-85
2021/04/05 10:01:02;;;;;;;4.05;0.73;;;5.90;85.60;;;;;;5021519;28;20028;-86
2021/04/05 10:03:29;;;;;;;3.65;0.70;;;5.90;84.80;;;;;;5029242;28;20017;-85
2021/04/05 10:05:56;;;;;;;9.10;1.38;;;5.90;84.40;;;;;;5036180;28;20505;-84
2021/04/05 10:08:27;;;;;;;9.35;2.75;;;5.90;84.60;;;;;;5024952;28;20076;-85
2021/04/05 10:10:56;;;;;;;7.72;1.10;;;5.90;82.50;;;;;;5023833;28;20030;-85
2021/04/05 10:13:25;;;;;;;16.30;2.78;;;5.90;82.70;;;;;;5015752;28;20018;-86
2021/04/05 10:15:53;;;;;;;5.97;1.23;;;5.90;83.00;;;;;;5020348;28;20487;-85
2021/04/05 10:18:19;;;;;;;6.97;1.40;;;6.00;81.50;;;;;;5026424;28;20036;-85
2021/04/05 10:20:48;;;;;;;7.85;2.13;;;6.00;79.90;;;;;;4997498;28;20026;-86
2021/04/05 10:23:18;;;;;;;10.48;1.40;;;5.90;78.40;;;;;;5030611;28;20036;-86
2021/04/05 10:25:44;;;;;;;8.33;1.60;;;5.90;76.30;;;;;;5032099;28;20033;-86
2021/04/05 10:28:14;;;;;;;7.90;2.00;;;5.80;77.20;;;;;;5024709;28;20282;-86
2021/04/05 10:30:42;;;;;;;10.80;1.88;;;5.60;76.90;;;;;;5019734;28;20472;-86
2021/04/05 10:33:14;;;;;;;11.77;1.83;;;5.60;78.10;;;;;;5043580;22;20031;-82
2021/04/05 10:35:48;;;;;;;8.20;1.58;;;5.50;79.70;;;;;;5001893;28;20498;-82
2021/04/05 10:38:16;;;;;;;7.50;1.58;;;5.50;79.50;;;;;;4996430;28;20463;-80
2021/04/05 10:40:42;;;;;;;7.15;1.20;;;5.60;79.40;;;;;;5003818;28;20049;-80
2021/04/05 10:43:37;;;;;;;8.43;1.80;;;5.60;79.60;;;;;;4993220;28;20060;-80
2021/04/05 10:46:29;;;;;;;8.20;1.75;;;5.70;80.20;;;;;;5012107;28;20069;-81
2021/04/05 10:49:03;;;;;;;10.38;1.60;;;5.80;80.60;;;;;;5018824;28;20482;-81
2021/04/05 10:51:43;;;;;;;6.13;1.15;;;5.90;77.60;;;;;;4996787;28;20022;-81
2021/04/05 10:54:21;;;;;;;12.13;1.95;;;5.90;73.60;;;;;;5012032;28;20025;-81
2021/04/05 10:56:55;;;;;;;6.90;1.33;;;5.80;71.20;;;;;;5012040;28;20522;-81
2021/04/05 10:59:30;;;;;;;5.68;1.30;;;5.80;73.40;;;;;;5009275;28;20026;-81
2021/04/05 11:02:18;;;;;;;7.18;1.30;;;5.80;73.40;;;;;;4991839;28;20036;-81
2021/04/05 11:04:52;;;;;;;9.63;1.58;;;5.80;72.90;;;;;;4990326;28;20026;-81
2021/04/05 11:07:21;;;;;;;6.57;1.30;;;5.90;73.00;;;;;;5013505;28;20104;-81
2021/04/05 11:09:49;;;;;;;6.25;1.30;;;5.90;73.00;;;;;;5013352;28;20390;-81
2021/04/05 11:12:17;;;;;;;4.72;1.33;;;5.90;70.90;;;;;;5002457;28;20018;-82
2021/04/05 11:14:44;;;;;;;10.65;2.85;;;6.00;72.90;;;;;;4994071;28;20474;-82
2021/04/05 11:17:10;;;;;;;7.47;1.42;;;6.20;70.90;;;;;;4997860;28;20411;-83
2021/04/05 11:19:44;;;;;;;5.63;1.17;;;6.20;71.60;;;;;;5001444;28;20433;-82
2021/04/05 11:22:17;;;;;;;7.25;1.30;;;6.30;71.10;;;;;;5002562;28;20220;-82
2021/04/05 11:24:44;;;;;;;10.60;2.90;;;6.40;74.20;;;;;;4994501;28;20034;-82
2021/04/05 11:27:13;;;;;;;8.32;1.60;;;6.30;73.90;;;;;;5023596;28;20034;-82
2021/04/05 11:29:44;;;;;;;9.35;1.45;;;6.20;73.70;;;;;;4994733;28;20048;-81
2021/04/05 11:32:13;;;;;;;6.53;1.42;;;6.00;73.10;;;;;;5014369;28;20069;-81
2021/04/05 11:34:43;;;;;;;6.97;1.20;;;5.80;73.20;;;;;;4996337;28;20030;-81
2021/04/05 11:37:14;;;;;;;6.38;1.27;;;5.70;75.80;;;;;;5021420;28;20013;-81
2021/04/05 11:39:57;;;;;;;7.55;1.05;;;5.50;73.90;;;;;;5012222;28;20045;-82
2021/04/05 11:42:29;;;;;;;6.07;1.20;;;5.50;69.00;;;;;;4994568;28;20099;-82
2021/04/05 11:44:56;;;;;;;5.57;1.30;;;5.40;72.10;;;;;;4999756;28;20030;-82
2021/04/05 11:47:24;;;;;;;6.63;1.50;;;5.40;73.50;;;;;;4999111;28;20079;-82
2021/04/05 11:49:50;;;;;;;9.02;1.00;;;5.50;73.00;;;;;;4997712;28;20414;-83
2021/04/05 11:52:25;;;;;;;8.20;0.90;;;5.60;73.00;;;;;;5005526;28;20017;-83
2021/04/05 11:54:56;;;;;;;5.25;1.30;;;5.80;73.50;;;;;;5001589;28;20418;-82
2021/04/05 11:57:34;;;;;;;8.80;1.33;;;6.00;74.10;;;;;;5022670;28;20472;-83
2021/04/05 12:00:29;;;;;;;7.47;1.20;;;6.20;73.30;;;;;;5026380;28;20061;-83
2021/04/05 12:03:07;;;;;;;10.20;1.55;;;6.40;72.20;;;;;;5003399;28;20025;-83
2021/04/05 12:05:58;;;;;;;6.57;1.00;;;6.50;71.70;;;;;;5016955;28;20034;-83
2021/04/05 12:09:02;;;;;;;10.35;1.70;;;6.70;72.50;;;;;;5007725;28;20041;-83
2021/04/05 12:11:41;;;;;;;7.13;1.50;;;6.90;67.80;;;;;;5011827;28;20148;-83
2021/04/05 12:14:10;;;;;;;10.25;1.98;;;6.90;68.90;;;;;;5012837;28;20032;-82
2021/04/05 12:16:38;;;;;;;6.80;1.02;;;6.90;67.90;;;;;;5028208;28;20033;-82
2021/04/05 12:19:05;;;;;;;3.75;0.90;;;6.70;71.00;;;;;;5004002;28;20558;-81
2021/04/05 12:21:34;;;;;;;3.15;0.77;;;6.70;71.90;;;;;;4997082;28;20367;-82
2021/04/05 12:24:01;;;;;;;8.88;1.38;;;6.60;71.70;;;;;;5006340;28;20522;-82
2021/04/05 12:26:29;;;;;;;9.07;1.10;;;6.60;73.20;;;;;;4982461;28;20026;-82
2021/04/05 12:29:03;;;;;;;8.70;1.70;;;6.60;71.90;;;;;;5012759;28;20068;-82
2021/04/05 12:31:30;;;;;;;5.70;0.88;;;6.70;71.60;;;;;;5006884;28;20041;-82
2021/04/05 12:34:07;;;;;;;4.90;1.15;;;6.80;72.10;;;;;;5013851;28;20037;-82
2021/04/05 12:36:35;;;;;;;7.07;1.50;;;6.90;70.70;;;;;;5007313;28;20076;-81
2021/04/05 12:39:07;;;;;;;12.82;1.30;;;6.80;71.00;;;;;;5016399;28;20592;-81
2021/04/05 12:41:38;;;;;;;7.78;1.60;;;6.70;72.90;;;;;;5007316;28;20018;-81
2021/04/05 12:44:07;;;;;;;4.05;0.80;;;6.70;73.70;;;;;;5004814;28;20037;-81
2021/04/05 12:46:36;;;;;;;5.13;0.80;;;6.80;76.80;;;;;;5004004;28;20026;-81
2021/04/05 12:49:02;;;;;;;7.30;1.10;;;6.80;76.90;;;;;;5023432;28;20387;-81
2021/04/05 12:51:28;;;;;;;4.13;1.00;;;6.90;77.80;;;;;;5016456;28;20447;-81
2021/04/05 12:54:05;;;;;;;5.35;1.20;;;6.90;77.50;;;;;;5016239;28;20018;-81
2021/04/05 12:56:32;;;;;;;6.63;1.45;;;7.10;74.80;;;;;;5011332;28;20030;-82
2021/04/05 12:58:57;;;;;;;3.85;1.15;;;7.10;74.90;;;;;;5002695;28;20057;-81
2021/04/05 13:01:27;;;;;;;4.78;1.10;;;7.20;75.00;;;;;;5028306;28;20411;-81
2021/04/05 13:03:53;;;;;;;6.47;1.02;;;7.40;73.90;;;;;;5017963;28;20021;-81
2021/04/05 13:06:24;;;;;;;5.38;1.40;;;7.50;72.20;;;;;;5001702;28;20493;-81
2021/04/05 13:09:10;;;;;;;6.38;1.27;;;7.50;72.50;;;;;;5018066;28;20155;-81
2021/04/05 13:11:43;;;;;;;7.32;1.20;;;7.50;71.60;;;;;;5023883;28;20051;-82
2021/04/05 13:14:11;;;;;;;3.05;0.70;;;7.40;68.40;;;;;;5034726;28;20459;-82
2021/04/05 13:17:06;;;;;;;6.05;1.15;;;7.30;66.30;;;;;;5035693;28;20029;-82
2021/04/05 13:19:54;;;;;;;5.68;1.10;;;7.10;63.00;;;;;;5017990;28;20025;-82
2021/04/05 13:22:24;;;;;;;5.30;0.90;;;7.00;63.80;;;;;;5001295;28;20022;-82
2021/04/05 13:24:58;;;;;;;6.15;1.25;;;7.00;63.20;;;;;;5025264;28;20030;-83